sensor_id;sensor_type;location;lat;lon;timestamp;P1;durP1;ratioP1;P2;durP2;ratioP2
45548;SDS011;31270;48.328;10.096;2023-07-31T00:01:10;4.55;;;2.97;;
45548;SDS011;31270;48.328;10.096;2023-07-31T00:03:36;7.18;;;2.90;;
45548;SDS011;31270;48.328;10.096;2023-07-31T00:06:01;5.57;;;2.80;;
45548;SDS011;31270;48.328;10.096;2023-07-31T00:08:27;3.50;;;3.20;;
45548;SDS011;31270;48.328;10.096;2023-07-31T00:10:53;3.60;;;2.80;;
45548;SDS011;31270;48.328;10.096;2023-07-31T00:13:18;4.38;;;3.13;;
45548;SDS011;31270;48.328;10.096;2023-07-31T00:15:44;3.10;;;2.80;;
45548;SDS011;31270;48.328;10.096;2023-07-31T00:18:09;8.32;;;3.10;;
45548;SDS011;31270;48.328;10.096;2023-07-31T00:20:35;6.70;;;3.40;;
45548;SDS011;31270;48.328;10.096;2023-07-31T00:23:01;4.72;;;3.17;;
45548;SDS011;31270;48.328;10.096;2023-07-31T00:25:27;4.63;;;3.00;;
45548;SDS011;31270;48.328;10.096;2023-07-31T00:27:52;6.57;;;2.90;;
45548;SDS011;31270;48.328;10.096;2023-07-31T00:30:18;3.97;;;3.05;;
45548;SDS011;31270;48.328;10.096;2023-07-31T00:32:44;4.97;;;2.80;;
45548;SDS011;31270;48.328;10.096;2023-07-31T00:35:09;3.85;;;3.20;;
45548;SDS011;31270;48.328;10.096;2023-07-31T00:37:35;4.88;;;3.05;;
45548;SDS011;31270;48.328;10.096;2023-07-31T00:40:00;8.10;;;3.20;;
45548;SDS011;31270;48.328;10.096;2023-07-31T00:42:28;6.97;;;3.70;;
45548;SDS011;31270;48.328;10.096;2023-07-31T00:44:53;7.43;;;3.23;;
45548;SDS011;31270;48.328;10.096;2023-07-31T00:47:19;7.30;;;3.50;;
45548;SDS011;31270;48.328;10.096;2023-07-31T00:49:45;5.47;;;3.65;;
45548;SDS011;31270;48.328;10.096;2023-07-31T00:52:11;6.50;;;3.13;;
45548;SDS011;31270;48.328;10.096;2023-07-31T00:54:36;4.87;;;3.20;;
45548;SDS011;31270;48.328;10.096;2023-07-31T00:57:02;7.43;;;3.93;;
45548;SDS011;31270;48.328;10.096;2023-07-31T00:59:28;6.93;;;3.90;;
45548;SDS011;31270;48.328;10.096;2023-07-31T01:01:54;4.95;;;3.58;;
45548;SDS011;31270;48.328;10.096;2023-07-31T01:04:20;8.80;;;4.40;;
45548;SDS011;31270;48.328;10.096;2023-07-31T01:09:34;6.43;;;4.03;;
45548;SDS011;31270;48.328;10.096;2023-07-31T01:12:04;6.07;;;4.33;;
45548;SDS011;31270;48.328;10.096;2023-07-31T01:14:32;4.90;;;4.10;;
45548;SDS011;31270;48.328;10.096;2023-07-31T01:16:57;7.63;;;4.20;;
45548;SDS011;31270;48.328;10.096;2023-07-31T01:19:23;6.07;;;4.17;;
45548;SDS011;31270;48.328;10.096;2023-07-31T01:22:07;7.97;;;4.50;;
45548;SDS011;31270;48.328;10.096;2023-07-31T01:27:32;6.93;;;3.90;;
45548;SDS011;31270;48.328;10.096;2023-07-31T01:30:08;6.03;;;3.97;;
45548;SDS011;31270;48.328;10.096;2023-07-31T01:32:40;7.20;;;4.18;;
45548;SDS011;31270;48.328;10.096;2023-07-31T01:35:07;4.50;;;3.58;;
45548;SDS011;31270;48.328;10.096;2023-07-31T01:37:33;7.40;;;4.55;;
45548;SDS011;31270;48.328;10.096;2023-07-31T01:39:59;9.03;;;4.47;;
45548;SDS011;31270;48.328;10.096;2023-07-31T01:42:25;5.00;;;3.90;;
45548;SDS011;31270;48.328;10.096;2023-07-31T01:44:50;6.53;;;3.93;;
45548;SDS011;31270;48.328;10.096;2023-07-31T01:47:16;8.57;;;4.10;;
45548;SDS011;31270;48.328;10.096;2023-07-31T01:49:41;5.17;;;3.83;;
45548;SDS011;31270;48.328;10.096;2023-07-31T01:52:07;11.47;;;4.27;;
45548;SDS011;31270;48.328;10.096;2023-07-31T01:54:33;5.37;;;3.90;;
45548;SDS011;31270;48.328;10.096;2023-07-31T01:56:58;7.97;;;3.40;;
45548;SDS011;31270;48.328;10.096;2023-07-31T01:59:24;5.67;;;3.67;;
45548;SDS011;31270;48.328;10.096;2023-07-31T02:01:50;5.87;;;3.57;;
45548;SDS011;31270;48.328;10.096;2023-07-31T02:04:15;6.30;;;3.67;;
45548;SDS011;31270;48.328;10.096;2023-07-31T02:06:41;6.23;;;3.30;;
45548;SDS011;31270;48.328;10.096;2023-07-31T02:09:07;5.13;;;3.90;;
45548;SDS011;31270;48.328;10.096;2023-07-31T02:11:32;8.97;;;3.77;;
45548;SDS011;31270;48.328;10.096;2023-07-31T02:14:05;4.90;;;3.83;;
45548;SDS011;31270;48.328;10.096;2023-07-31T02:16:30;5.87;;;3.87;;
45548;SDS011;31270;48.328;10.096;2023-07-31T02:18:56;4.97;;;3.60;;
45548;SDS011;31270;48.328;10.096;2023-07-31T02:21:21;4.90;;;3.93;;
45548;SDS011;31270;48.328;10.096;2023-07-31T02:23:47;4.70;;;3.40;;
45548;SDS011;31270;48.328;10.096;2023-07-31T02:26:12;6.90;;;3.70;;
45548;SDS011;31270;48.328;10.096;2023-07-31T02:28:38;6.30;;;3.27;;
45548;SDS011;31270;48.328;10.096;2023-07-31T02:31:04;6.07;;;4.00;;
45548;SDS011;31270;48.328;10.096;2023-07-31T02:33:29;6.60;;;3.93;;
45548;SDS011;31270;48.328;10.096;2023-07-31T02:35:55;6.37;;;4.10;;
45548;SDS011;31270;48.328;10.096;2023-07-31T02:38:20;6.63;;;3.77;;
45548;SDS011;31270;48.328;10.096;2023-07-31T02:40:46;4.97;;;3.90;;
45548;SDS011;31270;48.328;10.096;2023-07-31T02:43:13;6.50;;;3.77;;
45548;SDS011;31270;48.328;10.096;2023-07-31T02:45:38;5.27;;;3.63;;
45548;SDS011;31270;48.328;10.096;2023-07-31T02:48:04;4.53;;;3.47;;
45548;SDS011;31270;48.328;10.096;2023-07-31T02:50:30;5.37;;;4.13;;
45548;SDS011;31270;48.328;10.096;2023-07-31T02:52:57;7.97;;;4.10;;
45548;SDS011;31270;48.328;10.096;2023-07-31T02:55:22;4.77;;;3.73;;
45548;SDS011;31270;48.328;10.096;2023-07-31T02:57:48;6.87;;;3.80;;
45548;SDS011;31270;48.328;10.096;2023-07-31T03:00:13;4.93;;;3.93;;
45548;SDS011;31270;48.328;10.096;2023-07-31T03:02:39;5.27;;;3.70;;
45548;SDS011;31270;48.328;10.096;2023-07-31T03:05:05;4.97;;;3.67;;
45548;SDS011;31270;48.328;10.096;2023-07-31T03:07:30;6.67;;;4.10;;
45548;SDS011;31270;48.328;10.096;2023-07-31T03:09:56;4.00;;;3.33;;
45548;SDS011;31270;48.328;10.096;2023-07-31T03:12:22;9.20;;;3.77;;
45548;SDS011;31270;48.328;10.096;2023-07-31T03:14:48;5.23;;;3.70;;
45548;SDS011;31270;48.328;10.096;2023-07-31T03:17:14;9.10;;;4.10;;
45548;SDS011;31270;48.328;10.096;2023-07-31T03:19:40;9.43;;;4.03;;
45548;SDS011;31270;48.328;10.096;2023-07-31T03:22:06;10.00;;;3.63;;
45548;SDS011;31270;48.328;10.096;2023-07-31T03:24:31;7.77;;;3.80;;
45548;SDS011;31270;48.328;10.096;2023-07-31T03:26:57;4.47;;;3.63;;
45548;SDS011;31270;48.328;10.096;2023-07-31T03:29:23;6.83;;;3.83;;
45548;SDS011;31270;48.328;10.096;2023-07-31T03:31:48;5.77;;;3.97;;
45548;SDS011;31270;48.328;10.096;2023-07-31T03:34:14;4.30;;;3.60;;
45548;SDS011;31270;48.328;10.096;2023-07-31T03:36:40;4.60;;;3.60;;
45548;SDS011;31270;48.328;10.096;2023-07-31T03:39:05;5.53;;;3.73;;
45548;SDS011;31270;48.328;10.096;2023-07-31T03:41:31;9.17;;;4.03;;
45548;SDS011;31270;48.328;10.096;2023-07-31T03:43:56;4.43;;;3.43;;
45548;SDS011;31270;48.328;10.096;2023-07-31T03:46:22;4.30;;;3.17;;
45548;SDS011;31270;48.328;10.096;2023-07-31T03:48:49;5.20;;;3.63;;
45548;SDS011;31270;48.328;10.096;2023-07-31T03:51:15;7.43;;;4.10;;
45548;SDS011;31270;48.328;10.096;2023-07-31T03:53:41;5.00;;;3.57;;
45548;SDS011;31270;48.328;10.096;2023-07-31T03:56:07;5.20;;;4.07;;
45548;SDS011;31270;48.328;10.096;2023-07-31T03:58:32;6.40;;;3.70;;
45548;SDS011;31270;48.328;10.096;2023-07-31T04:00:58;9.53;;;4.20;;
45548;SDS011;31270;48.328;10.096;2023-07-31T04:03:24;13.03;;;4.30;;
45548;SDS011;31270;48.328;10.096;2023-07-31T04:05:49;5.07;;;3.77;;
45548;SDS011;31270;48.328;10.096;2023-07-31T04:08:15;5.73;;;3.70;;
45548;SDS011;31270;48.328;10.096;2023-07-31T04:10:40;6.47;;;3.70;;
45548;SDS011;31270;48.328;10.096;2023-07-31T04:13:06;6.30;;;3.80;;
45548;SDS011;31270;48.328;10.096;2023-07-31T04:15:31;5.37;;;4.00;;
45548;SDS011;31270;48.328;10.096;2023-07-31T04:17:57;7.17;;;4.40;;
45548;SDS011;31270;48.328;10.096;2023-07-31T04:20:22;7.53;;;4.53;;
45548;SDS011;31270;48.328;10.096;2023-07-31T04:22:48;5.90;;;4.00;;
45548;SDS011;31270;48.328;10.096;2023-07-31T04:25:14;9.33;;;4.10;;
45548;SDS011;31270;48.328;10.096;2023-07-31T04:27:39;7.77;;;3.97;;
45548;SDS011;31270;48.328;10.096;2023-07-31T04:30:05;4.50;;;4.10;;
45548;SDS011;31270;48.328;10.096;2023-07-31T04:32:31;6.80;;;4.63;;
45548;SDS011;31270;48.328;10.096;2023-07-31T04:34:57;5.37;;;4.20;;
45548;SDS011;31270;48.328;10.096;2023-07-31T04:37:22;7.83;;;3.80;;
45548;SDS011;31270;48.328;10.096;2023-07-31T04:39:48;6.43;;;4.27;;
45548;SDS011;31270;48.328;10.096;2023-07-31T04:42:13;4.73;;;3.50;;
45548;SDS011;31270;48.328;10.096;2023-07-31T04:44:39;5.87;;;4.17;;
45548;SDS011;31270;48.328;10.096;2023-07-31T04:47:05;6.30;;;4.17;;
45548;SDS011;31270;48.328;10.096;2023-07-31T04:49:31;6.27;;;4.20;;
45548;SDS011;31270;48.328;10.096;2023-07-31T04:51:57;7.07;;;3.67;;
45548;SDS011;31270;48.328;10.096;2023-07-31T04:54:22;4.93;;;3.60;;
45548;SDS011;31270;48.328;10.096;2023-07-31T04:56:48;5.72;;;3.42;;
45548;SDS011;31270;48.328;10.096;2023-07-31T04:59:14;9.43;;;3.53;;
45548;SDS011;31270;48.328;10.096;2023-07-31T05:01:39;4.53;;;3.50;;
45548;SDS011;31270;48.328;10.096;2023-07-31T05:04:05;6.03;;;3.90;;
45548;SDS011;31270;48.328;10.096;2023-07-31T05:06:31;6.05;;;3.22;;
45548;SDS011;31270;48.328;10.096;2023-07-31T05:08:56;6.63;;;3.70;;
45548;SDS011;31270;48.328;10.096;2023-07-31T05:11:22;4.33;;;3.37;;
45548;SDS011;31270;48.328;10.096;2023-07-31T05:13:47;7.40;;;3.75;;
45548;SDS011;31270;48.328;10.096;2023-07-31T05:16:13;5.22;;;3.42;;
45548;SDS011;31270;48.328;10.096;2023-07-31T05:18:39;5.85;;;3.53;;
45548;SDS011;31270;48.328;10.096;2023-07-31T05:21:04;5.20;;;3.53;;
45548;SDS011;31270;48.328;10.096;2023-07-31T05:23:30;7.47;;;4.07;;
45548;SDS011;31270;48.328;10.096;2023-07-31T05:26:06;4.95;;;3.50;;
45548;SDS011;31270;48.328;10.096;2023-07-31T05:28:34;7.10;;;3.35;;
45548;SDS011;31270;48.328;10.096;2023-07-31T05:31:00;5.47;;;3.50;;
45548;SDS011;31270;48.328;10.096;2023-07-31T05:33:26;4.82;;;3.22;;
45548;SDS011;31270;48.328;10.096;2023-07-31T05:35:52;10.63;;;3.35;;
45548;SDS011;31270;48.328;10.096;2023-07-31T05:38:18;7.93;;;3.20;;
45548;SDS011;31270;48.328;10.096;2023-07-31T05:40:46;5.88;;;3.83;;
45548;SDS011;31270;48.328;10.096;2023-07-31T05:43:12;8.77;;;3.50;;
45548;SDS011;31270;48.328;10.096;2023-07-31T05:45:38;5.45;;;3.50;;
45548;SDS011;31270;48.328;10.096;2023-07-31T05:48:05;5.57;;;3.58;;
45548;SDS011;31270;48.328;10.096;2023-07-31T05:50:31;6.82;;;4.20;;
45548;SDS011;31270;48.328;10.096;2023-07-31T05:52:56;5.03;;;3.20;;
45548;SDS011;31270;48.328;10.096;2023-07-31T05:55:22;6.13;;;3.22;;
45548;SDS011;31270;48.328;10.096;2023-07-31T05:57:49;6.13;;;3.47;;
45548;SDS011;31270;48.328;10.096;2023-07-31T06:00:21;5.22;;;3.78;;
45548;SDS011;31270;48.328;10.096;2023-07-31T06:02:47;5.15;;;3.15;;
45548;SDS011;31270;48.328;10.096;2023-07-31T06:05:13;7.85;;;3.65;;
45548;SDS011;31270;48.328;10.096;2023-07-31T06:07:39;5.95;;;3.33;;
45548;SDS011;31270;48.328;10.096;2023-07-31T06:10:05;4.38;;;3.63;;
45548;SDS011;31270;48.328;10.096;2023-07-31T06:12:31;4.57;;;3.20;;
45548;SDS011;31270;48.328;10.096;2023-07-31T06:14:58;6.03;;;3.63;;
45548;SDS011;31270;48.328;10.096;2023-07-31T06:17:23;3.95;;;3.03;;
45548;SDS011;31270;48.328;10.096;2023-07-31T06:19:49;8.95;;;3.17;;
45548;SDS011;31270;48.328;10.096;2023-07-31T06:22:15;4.85;;;3.30;;
45548;SDS011;31270;48.328;10.096;2023-07-31T06:24:43;5.55;;;3.53;;
45548;SDS011;31270;48.328;10.096;2023-07-31T06:27:09;5.82;;;3.60;;
45548;SDS011;31270;48.328;10.096;2023-07-31T06:29:34;6.28;;;3.05;;
45548;SDS011;31270;48.328;10.096;2023-07-31T06:32:00;4.18;;;2.97;;
45548;SDS011;31270;48.328;10.096;2023-07-31T06:34:26;5.97;;;2.90;;
45548;SDS011;31270;48.328;10.096;2023-07-31T06:36:51;6.00;;;3.33;;
45548;SDS011;31270;48.328;10.096;2023-07-31T06:39:17;5.45;;;3.13;;
45548;SDS011;31270;48.328;10.096;2023-07-31T06:41:43;5.00;;;2.92;;
45548;SDS011;31270;48.328;10.096;2023-07-31T06:44:09;4.10;;;2.75;;
45548;SDS011;31270;48.328;10.096;2023-07-31T06:46:35;7.15;;;2.40;;
45548;SDS011;31270;48.328;10.096;2023-07-31T06:49:00;4.15;;;2.90;;
45548;SDS011;31270;48.328;10.096;2023-07-31T06:51:26;4.28;;;2.83;;
45548;SDS011;31270;48.328;10.096;2023-07-31T06:53:51;7.80;;;2.47;;
45548;SDS011;31270;48.328;10.096;2023-07-31T06:56:17;5.45;;;2.40;;
45548;SDS011;31270;48.328;10.096;2023-07-31T06:58:42;4.38;;;2.70;;
45548;SDS011;31270;48.328;10.096;2023-07-31T07:01:08;5.32;;;2.97;;
45548;SDS011;31270;48.328;10.096;2023-07-31T07:03:34;4.75;;;2.72;;
45548;SDS011;31270;48.328;10.096;2023-07-31T07:05:59;5.25;;;3.20;;
45548;SDS011;31270;48.328;10.096;2023-07-31T07:08:25;6.63;;;2.95;;
45548;SDS011;31270;48.328;10.096;2023-07-31T07:10:51;4.20;;;2.95;;
45548;SDS011;31270;48.328;10.096;2023-07-31T07:13:17;5.15;;;3.00;;
45548;SDS011;31270;48.328;10.096;2023-07-31T07:15:43;7.30;;;3.60;;
45548;SDS011;31270;48.328;10.096;2023-07-31T07:18:16;4.72;;;3.13;;
45548;SDS011;31270;48.328;10.096;2023-07-31T07:20:51;6.15;;;3.58;;
45548;SDS011;31270;48.328;10.096;2023-07-31T07:23:18;7.15;;;3.53;;
45548;SDS011;31270;48.328;10.096;2023-07-31T07:25:45;5.30;;;3.10;;
45548;SDS011;31270;48.328;10.096;2023-07-31T07:28:11;6.35;;;3.10;;
45548;SDS011;31270;48.328;10.096;2023-07-31T07:30:37;5.97;;;3.08;;
45548;SDS011;31270;48.328;10.096;2023-07-31T07:33:02;4.30;;;3.25;;
45548;SDS011;31270;48.328;10.096;2023-07-31T07:35:28;6.18;;;2.97;;
45548;SDS011;31270;48.328;10.096;2023-07-31T07:37:55;7.13;;;3.47;;
45548;SDS011;31270;48.328;10.096;2023-07-31T07:40:21;7.75;;;3.00;;
45548;SDS011;31270;48.328;10.096;2023-07-31T07:42:47;3.90;;;2.75;;
45548;SDS011;31270;48.328;10.096;2023-07-31T07:45:13;5.40;;;3.13;;
45548;SDS011;31270;48.328;10.096;2023-07-31T07:47:40;6.68;;;2.90;;
45548;SDS011;31270;48.328;10.096;2023-07-31T07:50:06;5.63;;;2.88;;
45548;SDS011;31270;48.328;10.096;2023-07-31T07:52:32;3.97;;;2.40;;
45548;SDS011;31270;48.328;10.096;2023-07-31T07:54:58;4.70;;;2.67;;
45548;SDS011;31270;48.328;10.096;2023-07-31T07:57:25;2.75;;;2.10;;
45548;SDS011;31270;48.328;10.096;2023-07-31T07:59:57;4.82;;;2.75;;
45548;SDS011;31270;48.328;10.096;2023-07-31T08:02:23;3.95;;;2.70;;
45548;SDS011;31270;48.328;10.096;2023-07-31T08:04:48;10.32;;;2.70;;
45548;SDS011;31270;48.328;10.096;2023-07-31T08:07:14;3.58;;;2.67;;
45548;SDS011;31270;48.328;10.096;2023-07-31T08:09:40;3.30;;;2.25;;
45548;SDS011;31270;48.328;10.096;2023-07-31T08:12:06;3.50;;;2.38;;
45548;SDS011;31270;48.328;10.096;2023-07-31T08:14:32;4.55;;;2.63;;
45548;SDS011;31270;48.328;10.096;2023-07-31T08:16:57;3.70;;;2.35;;
45548;SDS011;31270;48.328;10.096;2023-07-31T08:19:23;4.75;;;2.22;;
45548;SDS011;31270;48.328;10.096;2023-07-31T08:21:49;4.45;;;2.20;;
45548;SDS011;31270;48.328;10.096;2023-07-31T08:24:14;4.55;;;2.38;;
45548;SDS011;31270;48.328;10.096;2023-07-31T08:26:40;4.35;;;2.17;;
45548;SDS011;31270;48.328;10.096;2023-07-31T08:29:06;3.13;;;2.15;;
45548;SDS011;31270;48.328;10.096;2023-07-31T08:31:31;5.22;;;2.08;;
45548;SDS011;31270;48.328;10.096;2023-07-31T08:33:57;3.13;;;2.05;;
45548;SDS011;31270;48.328;10.096;2023-07-31T08:36:23;2.22;;;1.90;;
45548;SDS011;31270;48.328;10.096;2023-07-31T08:38:49;4.55;;;2.00;;
45548;SDS011;31270;48.328;10.096;2023-07-31T08:41:15;4.50;;;2.13;;
45548;SDS011;31270;48.328;10.096;2023-07-31T08:43:46;4.13;;;2.08;;
45548;SDS011;31270;48.328;10.096;2023-07-31T08:46:12;3.40;;;1.95;;
45548;SDS011;31270;48.328;10.096;2023-07-31T08:48:41;4.10;;;2.08;;
45548;SDS011;31270;48.328;10.096;2023-07-31T08:51:07;7.03;;;2.33;;
45548;SDS011;31270;48.328;10.096;2023-07-31T08:53:34;3.10;;;2.03;;
45548;SDS011;31270;48.328;10.096;2023-07-31T08:55:59;3.92;;;2.20;;
45548;SDS011;31270;48.328;10.096;2023-07-31T08:58:27;2.10;;;1.90;;
45548;SDS011;31270;48.328;10.096;2023-07-31T09:00:55;4.60;;;2.15;;
45548;SDS011;31270;48.328;10.096;2023-07-31T09:03:22;6.00;;;2.13;;
45548;SDS011;31270;48.328;10.096;2023-07-31T09:05:50;3.42;;;1.80;;
45548;SDS011;31270;48.328;10.096;2023-07-31T09:08:20;3.83;;;2.30;;
45548;SDS011;31270;48.328;10.096;2023-07-31T09:10:47;5.20;;;1.80;;
45548;SDS011;31270;48.328;10.096;2023-07-31T09:13:14;4.95;;;2.28;;
45548;SDS011;31270;48.328;10.096;2023-07-31T09:15:42;4.10;;;2.20;;
45548;SDS011;31270;48.328;10.096;2023-07-31T09:18:09;3.38;;;2.10;;
45548;SDS011;31270;48.328;10.096;2023-07-31T09:20:35;5.28;;;2.30;;
45548;SDS011;31270;48.328;10.096;2023-07-31T09:25:38;3.38;;;1.98;;
45548;SDS011;31270;48.328;10.096;2023-07-31T09:28:08;2.88;;;1.67;;
45548;SDS011;31270;48.328;10.096;2023-07-31T09:30:46;3.38;;;2.05;;
45548;SDS011;31270;48.328;10.096;2023-07-31T09:33:13;3.97;;;2.08;;
45548;SDS011;31270;48.328;10.096;2023-07-31T09:35:39;5.38;;;2.17;;
45548;SDS011;31270;48.328;10.096;2023-07-31T09:38:12;3.67;;;1.95;;
45548;SDS011;31270;48.328;10.096;2023-07-31T09:40:40;4.80;;;2.00;;
45548;SDS011;31270;48.328;10.096;2023-07-31T09:43:11;3.50;;;2.08;;
45548;SDS011;31270;48.328;10.096;2023-07-31T09:45:39;3.50;;;1.85;;
45548;SDS011;31270;48.328;10.096;2023-07-31T09:48:07;2.08;;;1.80;;
45548;SDS011;31270;48.328;10.096;2023-07-31T09:50:43;2.45;;;1.60;;
45548;SDS011;31270;48.328;10.096;2023-07-31T09:53:10;3.08;;;1.50;;
45548;SDS011;31270;48.328;10.096;2023-07-31T09:55:36;2.90;;;1.73;;
45548;SDS011;31270;48.328;10.096;2023-07-31T09:58:06;5.45;;;2.30;;
45548;SDS011;31270;48.328;10.096;2023-07-31T10:00:33;3.67;;;1.73;;
45548;SDS011;31270;48.328;10.096;2023-07-31T10:03:00;2.40;;;1.70;;
45548;SDS011;31270;48.328;10.096;2023-07-31T10:05:30;4.68;;;1.38;;
45548;SDS011;31270;48.328;10.096;2023-07-31T10:07:59;2.75;;;1.73;;
45548;SDS011;31270;48.328;10.096;2023-07-31T10:10:25;2.83;;;1.55;;
45548;SDS011;31270;48.328;10.096;2023-07-31T10:12:52;5.88;;;1.77;;
45548;SDS011;31270;48.328;10.096;2023-07-31T10:15:21;2.45;;;1.60;;
45548;SDS011;31270;48.328;10.096;2023-07-31T10:17:48;1.63;;;1.33;;
45548;SDS011;31270;48.328;10.096;2023-07-31T10:20:14;3.47;;;1.77;;
45548;SDS011;31270;48.328;10.096;2023-07-31T10:22:41;2.92;;;1.52;;
45548;SDS011;31270;48.328;10.096;2023-07-31T10:25:08;4.43;;;1.70;;
45548;SDS011;31270;48.328;10.096;2023-07-31T10:27:35;3.03;;;1.55;;
45548;SDS011;31270;48.328;10.096;2023-07-31T10:30:03;5.00;;;1.70;;
45548;SDS011;31270;48.328;10.096;2023-07-31T10:32:31;2.17;;;1.27;;
45548;SDS011;31270;48.328;10.096;2023-07-31T10:34:57;3.35;;;1.70;;
45548;SDS011;31270;48.328;10.096;2023-07-31T10:37:24;2.53;;;1.38;;
45548;SDS011;31270;48.328;10.096;2023-07-31T10:40:05;3.55;;;1.85;;
45548;SDS011;31270;48.328;10.096;2023-07-31T10:42:35;5.00;;;1.75;;
45548;SDS011;31270;48.328;10.096;2023-07-31T10:45:04;1.95;;;1.67;;
45548;SDS011;31270;48.328;10.096;2023-07-31T10:47:44;2.65;;;1.42;;
45548;SDS011;31270;48.328;10.096;2023-07-31T10:50:15;2.72;;;1.60;;
45548;SDS011;31270;48.328;10.096;2023-07-31T10:52:43;4.38;;;1.60;;
45548;SDS011;31270;48.328;10.096;2023-07-31T10:55:24;3.03;;;1.50;;
45548;SDS011;31270;48.328;10.096;2023-07-31T10:57:53;5.95;;;1.98;;
45548;SDS011;31270;48.328;10.096;2023-07-31T11:03:05;3.58;;;1.75;;
45548;SDS011;31270;48.328;10.096;2023-07-31T11:05:48;5.43;;;2.00;;
45548;SDS011;31270;48.328;10.096;2023-07-31T11:08:27;5.00;;;1.75;;
45548;SDS011;31270;48.328;10.096;2023-07-31T11:13:28;3.05;;;1.85;;
45548;SDS011;31270;48.328;10.096;2023-07-31T11:15:55;3.15;;;1.60;;
45548;SDS011;31270;48.328;10.096;2023-07-31T11:18:21;3.40;;;1.42;;
45548;SDS011;31270;48.328;10.096;2023-07-31T11:20:46;3.88;;;1.80;;
45548;SDS011;31270;48.328;10.096;2023-07-31T11:23:12;4.07;;;1.73;;
45548;SDS011;31270;48.328;10.096;2023-07-31T11:25:40;3.40;;;2.05;;
45548;SDS011;31270;48.328;10.096;2023-07-31T11:28:16;2.38;;;1.40;;
45548;SDS011;31270;48.328;10.096;2023-07-31T11:30:44;3.03;;;1.60;;
45548;SDS011;31270;48.328;10.096;2023-07-31T11:33:12;4.53;;;1.95;;
45548;SDS011;31270;48.328;10.096;2023-07-31T11:35:45;6.72;;;1.95;;
45548;SDS011;31270;48.328;10.096;2023-07-31T11:38:20;1.83;;;1.48;;
45548;SDS011;31270;48.328;10.096;2023-07-31T11:40:48;3.22;;;1.48;;
45548;SDS011;31270;48.328;10.096;2023-07-31T11:43:14;2.85;;;1.50;;
45548;SDS011;31270;48.328;10.096;2023-07-31T11:45:46;4.00;;;1.67;;
45548;SDS011;31270;48.328;10.096;2023-07-31T11:48:31;2.20;;;1.38;;
45548;SDS011;31270;48.328;10.096;2023-07-31T11:51:04;4.15;;;2.03;;
45548;SDS011;31270;48.328;10.096;2023-07-31T11:53:37;2.80;;;1.50;;
45548;SDS011;31270;48.328;10.096;2023-07-31T11:56:16;3.90;;;1.40;;
45548;SDS011;31270;48.328;10.096;2023-07-31T11:58:48;2.75;;;1.60;;
45548;SDS011;31270;48.328;10.096;2023-07-31T12:01:17;2.80;;;1.55;;
45548;SDS011;31270;48.328;10.096;2023-07-31T12:03:45;2.35;;;1.60;;
45548;SDS011;31270;48.328;10.096;2023-07-31T12:06:11;3.50;;;1.92;;
45548;SDS011;31270;48.328;10.096;2023-07-31T12:08:37;4.97;;;2.22;;
45548;SDS011;31270;48.328;10.096;2023-07-31T12:11:07;2.70;;;1.70;;
45548;SDS011;31270;48.328;10.096;2023-07-31T12:13:38;3.15;;;1.50;;
45548;SDS011;31270;48.328;10.096;2023-07-31T12:16:04;4.95;;;2.00;;
45548;SDS011;31270;48.328;10.096;2023-07-31T12:18:33;2.67;;;1.90;;
45548;SDS011;31270;48.328;10.096;2023-07-31T12:21:01;2.55;;;1.60;;
45548;SDS011;31270;48.328;10.096;2023-07-31T12:23:29;6.10;;;2.15;;
45548;SDS011;31270;48.328;10.096;2023-07-31T12:26:09;6.20;;;1.58;;
45548;SDS011;31270;48.328;10.096;2023-07-31T12:31:09;9.20;;;2.10;;
45548;SDS011;31270;48.328;10.096;2023-07-31T12:33:37;6.03;;;2.03;;
45548;SDS011;31270;48.328;10.096;2023-07-31T12:36:05;4.22;;;2.25;;
45548;SDS011;31270;48.328;10.096;2023-07-31T12:38:34;2.75;;;1.73;;
45548;SDS011;31270;48.328;10.096;2023-07-31T12:41:00;7.40;;;2.17;;
45548;SDS011;31270;48.328;10.096;2023-07-31T12:43:26;5.72;;;1.98;;
45548;SDS011;31270;48.328;10.096;2023-07-31T12:45:53;8.88;;;2.38;;
45548;SDS011;31270;48.328;10.096;2023-07-31T12:48:19;3.63;;;2.40;;
45548;SDS011;31270;48.328;10.096;2023-07-31T12:50:45;5.28;;;2.30;;
45548;SDS011;31270;48.328;10.096;2023-07-31T12:53:11;3.53;;;2.22;;
45548;SDS011;31270;48.328;10.096;2023-07-31T12:55:36;2.88;;;2.20;;
45548;SDS011;31270;48.328;10.096;2023-07-31T12:58:02;6.00;;;2.25;;
45548;SDS011;31270;48.328;10.096;2023-07-31T13:00:28;2.95;;;2.00;;
45548;SDS011;31270;48.328;10.096;2023-07-31T13:02:54;5.63;;;2.30;;
45548;SDS011;31270;48.328;10.096;2023-07-31T13:05:20;3.42;;;2.13;;
45548;SDS011;31270;48.328;10.096;2023-07-31T13:07:46;3.72;;;2.35;;
45548;SDS011;31270;48.328;10.096;2023-07-31T13:10:12;2.80;;;2.13;;
45548;SDS011;31270;48.328;10.096;2023-07-31T13:12:38;2.88;;;1.85;;
45548;SDS011;31270;48.328;10.096;2023-07-31T13:15:05;4.05;;;2.25;;
45548;SDS011;31270;48.328;10.096;2023-07-31T13:17:31;4.05;;;1.88;;
45548;SDS011;31270;48.328;10.096;2023-07-31T13:19:57;7.68;;;2.20;;
45548;SDS011;31270;48.328;10.096;2023-07-31T13:22:23;5.45;;;2.40;;
45548;SDS011;31270;48.328;10.096;2023-07-31T13:24:49;4.15;;;2.42;;
45548;SDS011;31270;48.328;10.096;2023-07-31T13:27:15;4.50;;;2.10;;
45548;SDS011;31270;48.328;10.096;2023-07-31T13:29:45;5.28;;;2.58;;
45548;SDS011;31270;48.328;10.096;2023-07-31T13:32:11;13.05;;;2.70;;
45548;SDS011;31270;48.328;10.096;2023-07-31T13:34:37;4.90;;;2.40;;
45548;SDS011;31270;48.328;10.096;2023-07-31T13:37:03;6.72;;;2.70;;
45548;SDS011;31270;48.328;10.096;2023-07-31T13:39:31;3.88;;;2.72;;
45548;SDS011;31270;48.328;10.096;2023-07-31T13:41:57;6.90;;;2.97;;
45548;SDS011;31270;48.328;10.096;2023-07-31T13:44:23;4.95;;;2.45;;
45548;SDS011;31270;48.328;10.096;2023-07-31T13:46:48;4.13;;;2.90;;
45548;SDS011;31270;48.328;10.096;2023-07-31T13:49:14;5.95;;;2.90;;
45548;SDS011;31270;48.328;10.096;2023-07-31T13:51:40;5.95;;;2.90;;
45548;SDS011;31270;48.328;10.096;2023-07-31T13:54:05;4.72;;;2.50;;
45548;SDS011;31270;48.328;10.096;2023-07-31T13:56:36;5.75;;;2.58;;
45548;SDS011;31270;48.328;10.096;2023-07-31T13:59:02;4.65;;;3.10;;
45548;SDS011;31270;48.328;10.096;2023-07-31T14:01:27;4.45;;;2.95;;
45548;SDS011;31270;48.328;10.096;2023-07-31T14:03:53;4.93;;;2.75;;
45548;SDS011;31270;48.328;10.096;2023-07-31T14:06:19;4.18;;;2.78;;
45548;SDS011;31270;48.328;10.096;2023-07-31T14:08:44;4.45;;;2.63;;
45548;SDS011;31270;48.328;10.096;2023-07-31T14:11:10;3.95;;;2.53;;
45548;SDS011;31270;48.328;10.096;2023-07-31T14:13:36;5.20;;;2.70;;
45548;SDS011;31270;48.328;10.096;2023-07-31T14:16:01;5.18;;;2.35;;
45548;SDS011;31270;48.328;10.096;2023-07-31T14:18:27;5.00;;;2.78;;
45548;SDS011;31270;48.328;10.096;2023-07-31T14:20:53;3.95;;;2.38;;
45548;SDS011;31270;48.328;10.096;2023-07-31T14:23:18;4.55;;;2.60;;
45548;SDS011;31270;48.328;10.096;2023-07-31T14:25:45;5.35;;;2.63;;
45548;SDS011;31270;48.328;10.096;2023-07-31T14:28:11;2.75;;;2.08;;
45548;SDS011;31270;48.328;10.096;2023-07-31T14:30:36;4.82;;;2.47;;
45548;SDS011;31270;48.328;10.096;2023-07-31T14:33:02;4.93;;;2.20;;
45548;SDS011;31270;48.328;10.096;2023-07-31T14:35:28;5.88;;;2.40;;
45548;SDS011;31270;48.328;10.096;2023-07-31T14:37:53;4.57;;;2.58;;
45548;SDS011;31270;48.328;10.096;2023-07-31T14:40:19;7.85;;;2.65;;
45548;SDS011;31270;48.328;10.096;2023-07-31T14:42:45;6.20;;;2.90;;
45548;SDS011;31270;48.328;10.096;2023-07-31T14:45:10;4.13;;;2.63;;
45548;SDS011;31270;48.328;10.096;2023-07-31T14:47:36;4.13;;;2.45;;